Terminal Aerodrome Forecast
Issued by NWS Sterling, VA

Current Version | Previous Version | Text Only | Print | Product List | Glossary Off
Versions: 1 2 3 4 5 6 7 8 9 10 11 12 13 14 15 16 17

000
FTUS41 KLWX 022100 AAC
TAFMRB
TAF AMD
KMRB 022127Z 0221/0318 19005KT P6SM VCTS BKN050CB
     FM030000 28008KT P6SM VCTS BKN050CB
     FM030200 29006KT P6SM BKN090
     FM030700 33004KT P6SM SCT250
     FM031600 VRB03KT P6SM FEW050=

USA.gov is the U.S. government's official web portal to all federal, state and local government web resources and services.